Time;durP1;ratioP1;P1;durP2;ratioP2;P2;SDS_P1;SDS_P2;PMS_P1;PMS_P2;Temp;Humidity;BMP_temperature;BMP_pressure;BME280_temperature;BME280_humidity;BME280_pressure;Samples;Min_cycle;Max_cycle;Signal;HPM_P1;HPM_P2
2023/03/25 00:03:21;;;;;;;18.58;2.33;;;10.70;99.90;;;;;;10503573;28;20049;-31
2023/03/25 00:08:23;;;;;;;13.05;3.55;;;11.20;99.90;;;;;;10491826;28;20052;-30
2023/03/25 00:13:26;;;;;;;14.77;2.10;;;11.20;99.90;;;;;;10495299;28;20048;-27
2023/03/25 00:18:32;;;;;;;17.60;2.83;;;11.10;99.90;;;;;;10493896;28;20053;-33
2023/03/25 00:23:34;;;;;;;32.50;3.80;;;10.90;99.90;;;;;;10493423;28;20048;-27
2023/03/25 00:28:37;;;;;;;30.73;3.97;;;10.80;99.90;;;;;;10486496;28;20110;-26
2023/03/25 00:33:41;;;;;;;17.83;4.07;;;10.80;99.90;;;;;;10492717;28;20500;-30
2023/03/25 00:38:44;;;;;;;18.30;2.88;;;10.80;99.90;;;;;;10489233;28;20052;-26
2023/03/25 00:43:46;;;;;;;30.48;5.43;;;11.10;99.90;;;;;;10488245;28;20080;-26
2023/03/25 00:48:49;;;;;;;31.02;3.55;;;10.80;99.90;;;;;;10492305;28;20504;-26
2023/03/25 00:53:53;;;;;;;32.33;3.95;;;11.20;99.90;;;;;;10476792;28;20048;-27
2023/03/25 00:58:54;;;;;;;26.65;3.85;;;10.70;99.90;;;;;;10485025;28;20045;-26
2023/03/25 01:03:59;;;;;;;20.50;4.47;;;10.70;99.90;;;;;;10491086;28;20102;-22
2023/03/25 01:09:02;;;;;;;14.93;2.88;;;10.40;99.90;;;;;;10491560;28;20076;-26
2023/03/25 01:14:04;;;;;;;;;;;11.10;99.90;;;;;;10477033;28;20063;-27
2023/03/25 01:19:08;;;;;;;21.95;3.08;;;10.70;99.90;;;;;;10505801;28;19955;-26
2023/03/25 01:24:13;;;;;;;24.02;3.22;;;10.90;99.90;;;;;;10494568;28;20127;-27
2023/03/25 01:29:17;;;;;;;19.73;2.88;;;10.70;99.90;;;;;;10481906;28;20076;-27
2023/03/25 01:34:20;;;;;;;20.48;2.80;;;10.60;99.90;;;;;;10471184;28;20075;-24
2023/03/25 01:39:23;;;;;;;30.75;3.58;;;11.20;99.90;;;;;;10483137;28;20076;-27
2023/03/25 01:45:13;;;;;;;36.10;3.80;;;11.00;99.90;;;;;;10490142;28;20133;-26
2023/03/25 01:50:17;;;;;;;28.95;4.22;;;10.70;99.90;;;;;;10339939;28;20474;-27
2023/03/25 01:55:20;;;;;;;18.70;3.10;;;10.40;99.90;;;;;;10445427;28;20061;-30
2023/03/25 02:00:22;;;;;;;;;;;11.00;99.90;;;;;;10479505;28;20044;-28
2023/03/25 02:05:32;;;;;;;36.47;6.15;;;10.30;99.90;;;;;;10481810;28;19927;-32
2023/03/25 02:10:34;;;;;;;38.35;4.60;;;10.30;99.90;;;;;;10483255;28;20072;-27
2023/03/25 02:15:48;;;;;;;33.73;3.97;;;10.50;99.90;;;;;;10484573;28;20158;-28
2023/03/25 02:21:49;;;;;;;34.30;4.80;;;10.90;99.90;;;;;;10476404;28;20506;-31
2023/03/25 02:27:25;;;;;;;49.25;8.13;;;10.80;99.90;;;;;;10487831;28;20118;-32
2023/03/25 02:32:44;;;;;;;29.02;4.97;;;10.10;99.90;;;;;;10499757;28;20518;-27
2023/03/25 02:38:10;;;;;;;43.53;6.18;;;10.40;99.90;;;;;;10493379;28;20072;-24
2023/03/25 02:43:18;;;;;;;40.45;6.10;;;10.10;99.90;;;;;;10522163;28;20075;-26
2023/03/25 02:48:25;;;;;;;27.95;3.45;;;10.20;99.90;;;;;;10485128;28;20510;-27
2023/03/25 02:53:32;;;;;;;27.55;4.28;;;10.50;99.90;;;;;;10475152;28;20110;-29
2023/03/25 02:58:35;;;;;;;37.83;6.03;;;10.80;99.90;;;;;;10512295;28;20135;-26
2023/03/25 03:03:37;;;;;;;61.45;7.20;;;10.80;99.90;;;;;;10505753;28;20094;-26
2023/03/25 03:08:52;;;;;;;55.13;5.28;;;10.20;99.90;;;;;;10475711;28;20059;-26
2023/03/25 03:14:04;;;;;;;41.50;6.13;;;10.70;99.90;;;;;;10487166;28;20140;-26
2023/03/25 03:19:20;;;;;;;44.83;5.55;;;10.20;99.90;;;;;;10478671;28;20506;-25
2023/03/25 03:24:27;;;;;;;38.33;5.88;;;9.90;99.90;;;;;;10496583;28;20040;-25
2023/03/25 03:29:35;;;;;;;40.65;5.22;;;10.30;99.90;;;;;;10490044;28;20597;-30
2023/03/25 03:34:43;;;;;;;42.00;5.88;;;10.40;99.90;;;;;;10479802;28;20045;-26
2023/03/25 03:39:48;;;;;;;66.18;7.88;;;10.20;99.90;;;;;;10502977;28;20086;-26
2023/03/25 03:44:54;;;;;;;36.20;5.85;;;10.40;99.90;;;;;;10497127;28;20131;-28
2023/03/25 03:49:59;;;;;;;38.58;5.00;;;10.00;99.90;;;;;;10502370;28;20044;-27
2023/03/25 03:55:09;;;;;;;28.75;4.72;;;10.20;99.90;;;;;;10502606;28;20055;-26
2023/03/25 04:00:16;;;;;;;42.28;4.75;;;10.00;99.90;;;;;;10510671;28;20048;-27
2023/03/25 04:05:20;;;;;;;32.55;5.80;;;9.90;99.90;;;;;;10502560;28;20053;-25
2023/03/25 04:10:33;;;;;;;31.73;5.35;;;9.90;99.90;;;;;;10523000;28;20040;-28
2023/03/25 04:15:35;;;;;;;;;;;9.70;99.90;;;;;;10488723;28;20056;-27
2023/03/25 04:20:43;;;;;;;40.05;5.13;;;9.90;99.90;;;;;;10493988;28;20384;-25
2023/03/25 04:25:48;;;;;;;51.72;7.00;;;9.60;99.90;;;;;;10476137;28;20057;-26
2023/03/25 04:30:54;;;;;;;46.00;5.47;;;9.70;99.90;;;;;;10477225;28;20048;-26
2023/03/25 04:35:56;;;;;;;32.88;4.45;;;10.10;99.90;;;;;;10486575;28;20139;-25
2023/03/25 04:40:59;;;;;;;44.42;6.00;;;9.60;99.90;;;;;;10479901;28;20041;-26
2023/03/25 04:46:01;;;;;;;36.13;4.35;;;9.60;99.90;;;;;;10480190;28;20047;-26
2023/03/25 04:51:04;;;;;;;22.33;4.05;;;9.90;99.90;;;;;;10495832;28;20079;-25
2023/03/25 04:56:14;;;;;;;40.47;6.87;;;9.50;99.90;;;;;;10498856;28;20487;-26
2023/03/25 05:01:23;;;;;;;48.00;5.82;;;10.00;99.90;;;;;;10459530;28;20053;-25
2023/03/25 05:06:25;;;;;;;38.58;6.22;;;9.50;99.90;;;;;;10488513;28;20207;-27
2023/03/25 05:11:28;;;;;;;44.67;5.68;;;9.70;99.90;;;;;;10480802;28;20438;-25
2023/03/25 05:16:30;;;;;;;41.72;8.13;;;10.20;99.90;;;;;;10489039;28;20136;-25
2023/03/25 05:21:34;;;;;;;38.10;5.90;;;9.60;99.90;;;;;;10491724;28;20178;-26
2023/03/25 05:26:39;;;;;;;42.17;6.13;;;10.10;99.90;;;;;;10518955;28;20048;-26
2023/03/25 05:31:41;;;;;;;36.92;5.32;;;9.70;99.90;;;;;;10497745;28;20400;-25
2023/03/25 05:36:43;;;;;;;39.30;4.38;;;9.80;99.90;;;;;;10484480;28;20524;-25
2023/03/25 05:41:46;;;;;;;44.30;5.33;;;10.30;99.90;;;;;;10489885;28;20060;-27
2023/03/25 05:46:48;;;;;;;46.83;6.70;;;10.10;99.90;;;;;;10500086;28;20142;-25
2023/03/25 05:51:52;;;;;;;43.80;4.35;;;9.30;99.90;;;;;;10491248;28;20136;-26
2023/03/25 05:56:56;;;;;;;39.72;6.03;;;9.90;99.90;;;;;;10497359;28;20055;-25
2023/03/25 06:01:57;;;;;;;;;;;9.70;99.90;;;;;;10492329;28;20131;-32
2023/03/25 06:07:00;;;;;;;47.42;5.45;;;9.60;99.90;;;;;;10504002;28;19973;-26
2023/03/25 06:12:04;;;;;;;46.25;6.97;;;9.60;99.90;;;;;;10485662;28;20048;-26
2023/03/25 06:17:06;;;;;;;37.15;5.28;;;9.90;99.90;;;;;;10482587;28;21669;-28
2023/03/25 06:22:09;;;;;;;37.45;5.30;;;10.00;99.90;;;;;;10486889;28;20114;-25
2023/03/25 06:27:16;;;;;;;28.90;4.47;;;9.80;99.90;;;;;;10481870;28;20048;-23
2023/03/25 06:32:18;;;;;;;23.20;3.33;;;10.00;99.90;;;;;;10484204;28;20072;-24
2023/03/25 06:37:20;;;;;;;34.88;5.07;;;10.10;99.90;;;;;;10492368;28;20052;-25
2023/03/25 06:42:24;;;;;;;41.53;5.50;;;10.90;99.90;;;;;;10490406;28;20055;-25
2023/03/25 06:47:25;;;;;;;34.22;5.38;;;10.10;99.90;;;;;;10478552;28;20069;-25
2023/03/25 06:52:27;;;;;;;25.50;4.32;;;10.10;99.90;;;;;;10487709;28;20056;-25
2023/03/25 06:57:30;;;;;;;36.85;4.63;;;10.40;99.90;;;;;;10474348;28;20098;-26
2023/03/25 07:14:59;;;;;;;31.35;4.85;;;10.70;99.90;;;;;;10509644;27;20117;-26
2023/03/25 07:20:01;;;;;;;;;;;10.10;99.90;;;;;;10479182;28;20052;-24
2023/03/25 07:25:03;;;;;;;30.95;3.45;;;10.60;99.90;;;;;;10482156;28;20361;-25
2023/03/25 07:30:07;;;;;;;24.42;3.72;;;10.40;99.90;;;;;;10477402;28;20495;-25
2023/03/25 07:35:09;;;;;;;36.33;5.85;;;10.80;99.90;;;;;;10477051;28;20072;-25
2023/03/25 07:40:12;;;;;;;24.40;4.35;;;11.10;99.90;;;;;;10486398;28;20076;-26
2023/03/25 07:45:15;;;;;;;28.55;3.75;;;10.40;99.90;;;;;;10481944;28;20082;-27
2023/03/25 07:50:17;;;;;;;27.08;4.93;;;11.00;99.90;;;;;;10481100;28;20139;-30
2023/03/25 07:55:19;;;;;;;29.13;5.00;;;10.40;99.90;;;;;;10481845;28;20068;-27
2023/03/25 08:00:23;;;;;;;24.13;4.13;;;10.70;99.90;;;;;;10474025;28;20048;-26
2023/03/25 08:05:25;;;;;;;47.25;4.75;;;11.10;99.90;;;;;;10485318;28;20140;-25
2023/03/25 08:10:27;;;;;;;32.30;4.95;;;10.40;99.90;;;;;;10481161;28;20051;-27
2023/03/25 08:15:30;;;;;;;41.43;6.37;;;10.60;99.90;;;;;;10478998;28;20465;-26
2023/03/25 08:20:32;;;;;;;26.45;4.63;;;10.20;99.90;;;;;;10486428;28;20595;-27
2023/03/25 08:25:34;;;;;;;39.78;5.47;;;10.30;99.90;;;;;;10455658;28;20172;-26
2023/03/25 08:30:38;;;;;;;34.28;5.07;;;10.30;99.90;;;;;;10455936;28;20075;-25
2023/03/25 08:35:41;;;;;;;37.13;4.32;;;10.80;99.90;;;;;;10453620;28;20095;-26
2023/03/25 08:40:43;;;;;;;31.15;4.22;;;10.50;99.90;;;;;;10441560;28;20119;-26
2023/03/25 08:45:46;;;;;;;19.60;3.70;;;11.60;99.90;;;;;;10455389;28;20047;-25
2023/03/25 08:50:48;;;;;;;34.50;5.13;;;11.70;99.90;;;;;;10445988;28;20140;-26
2023/03/25 08:55:52;;;;;;;37.75;5.47;;;11.40;99.90;;;;;;10452187;28;20423;-27
2023/03/25 09:00:57;;;;;;;44.58;5.03;;;11.10;99.90;;;;;;10452640;28;20045;-25
2023/03/25 09:06:02;;;;;;;37.33;6.30;;;11.50;99.90;;;;;;10453861;28;20069;-27
2023/03/25 09:11:04;;;;;;;36.50;5.53;;;11.00;99.90;;;;;;10449613;28;20048;-29
2023/03/25 09:16:09;;;;;;;38.23;4.80;;;11.40;99.90;;;;;;10453881;28;20122;-26
2023/03/25 09:21:11;;;;;;;45.53;6.25;;;10.90;99.90;;;;;;10455877;28;20111;-30
2023/03/25 09:26:13;;;;;;;35.05;5.10;;;11.40;99.90;;;;;;10437106;28;20053;-29
2023/03/25 09:31:16;;;;;;;44.20;6.45;;;11.30;99.90;;;;;;10451800;28;20052;-25
2023/03/25 09:36:18;;;;;;;39.35;6.00;;;11.80;99.90;;;;;;10448041;28;20045;-25
2023/03/25 09:41:33;;;;;;;37.38;4.75;;;11.70;99.90;;;;;;10452827;28;20408;-26
2023/03/25 09:46:37;;;;;;;47.15;5.88;;;11.50;99.90;;;;;;10450906;28;20124;-25
2023/03/25 09:51:40;;;;;;;34.58;4.18;;;11.50;99.90;;;;;;10448863;28;20045;-27
2023/03/25 09:56:43;;;;;;;40.10;5.93;;;11.70;99.90;;;;;;10442636;28;20068;-24
2023/03/25 10:01:55;;;;;;;44.70;6.55;;;11.60;99.90;;;;;;10461538;28;20493;-26
2023/03/25 10:07:04;;;;;;;36.08;6.18;;;11.70;99.90;;;;;;10464066;28;20133;-26
2023/03/25 10:12:19;;;;;;;23.80;4.20;;;12.50;99.90;;;;;;10445398;28;20726;-26
2023/03/25 10:17:33;;;;;;;43.80;6.45;;;13.20;99.90;;;;;;10449494;28;20132;-31
2023/03/25 10:22:41;;;;;;;44.83;6.68;;;12.10;99.90;;;;;;10444291;28;20076;-26
2023/03/25 10:27:46;;;;;;;42.28;5.88;;;11.50;99.90;;;;;;10447758;28;20049;-26
2023/03/25 10:32:52;;;;;;;48.75;6.50;;;12.30;99.90;;;;;;10443391;28;20519;-25
2023/03/25 10:37:58;;;;;;;25.20;3.70;;;11.80;99.90;;;;;;10440956;28;20436;-26
2023/03/25 10:43:18;;;;;;;40.85;5.88;;;12.70;99.90;;;;;;10447584;28;20051;-25
2023/03/25 10:48:24;;;;;;;49.83;7.95;;;12.30;99.90;;;;;;10434944;28;20510;-25
2023/03/25 10:53:28;;;;;;;44.10;6.80;;;11.70;99.90;;;;;;10442515;28;20521;-28
2023/03/25 10:58:31;;;;;;;50.28;7.00;;;11.80;99.90;;;;;;10440192;28;20554;-25
2023/03/25 11:03:35;;;;;;;33.33;5.00;;;11.70;99.90;;;;;;10448341;28;20049;-26
2023/03/25 11:08:38;;;;;;;39.45;5.40;;;12.70;99.90;;;;;;10454076;28;20045;-24
2023/03/25 11:13:42;;;;;;;58.42;7.88;;;12.10;99.90;;;;;;10443294;28;20059;-27
2023/03/25 11:18:47;;;;;;;51.20;5.57;;;12.40;99.90;;;;;;10448865;28;20048;-25
2023/03/25 11:23:51;;;;;;;33.33;4.80;;;11.90;99.90;;;;;;10433921;28;20079;-25
2023/03/25 11:28:56;;;;;;;30.45;3.08;;;12.10;99.90;;;;;;10453929;28;20049;-25
2023/03/25 11:34:06;;;;;;;30.50;4.05;;;12.50;99.90;;;;;;10462272;28;20049;-27
2023/03/25 11:39:16;;;;;;;26.35;5.30;;;12.50;99.90;;;;;;10442575;28;20138;-27
2023/03/25 11:44:23;;;;;;;43.42;5.43;;;12.80;99.90;;;;;;10443619;28;20056;-26
2023/03/25 11:49:28;;;;;;;35.85;5.68;;;12.20;99.90;;;;;;10459036;28;20114;-27
2023/03/25 11:54:30;;;;;;;35.17;4.95;;;12.80;99.90;;;;;;10443956;28;20052;-26
2023/03/25 11:59:38;;;;;;;38.50;4.97;;;12.70;99.90;;;;;;10442014;28;20178;-26
2023/03/25 12:04:56;;;;;;;41.58;5.90;;;12.70;99.90;;;;;;10446233;28;20076;-27
2023/03/25 12:10:04;;;;;;;43.33;7.03;;;12.30;99.90;;;;;;10456776;28;20473;-27
2023/03/25 12:15:19;;;;;;;40.63;6.40;;;12.50;99.90;;;;;;10443804;28;20084;-28
2023/03/25 12:20:29;;;;;;;36.85;6.75;;;13.00;99.90;;;;;;10460067;28;20048;-30
2023/03/25 12:25:43;;;;;;;28.17;5.25;;;13.00;99.90;;;;;;10447485;28;21662;-26
2023/03/25 12:30:57;;;;;;;32.60;4.88;;;12.90;99.90;;;;;;10459002;28;20083;-27
2023/03/25 12:36:17;;;;;;;40.97;5.35;;;12.60;99.90;;;;;;10450106;28;20041;-26
2023/03/25 12:41:22;;;;;;;26.85;4.43;;;12.90;99.90;;;;;;10451574;28;20072;-27
2023/03/25 12:46:38;;;;;;;31.80;6.03;;;11.70;99.90;;;;;;10454455;28;20132;-26
2023/03/25 12:51:51;;;;;;;35.08;4.32;;;11.90;99.90;;;;;;10451735;28;20120;-26
2023/03/25 12:57:03;;;;;;;31.00;4.00;;;13.20;99.90;;;;;;10449421;28;20045;-25
2023/03/25 13:02:19;;;;;;;39.83;5.97;;;12.80;99.90;;;;;;10453109;28;20076;-26
2023/03/25 13:07:26;;;;;;;34.75;5.70;;;12.90;99.90;;;;;;10447151;28;20045;-26
2023/03/25 13:12:33;;;;;;;30.77;4.68;;;12.10;99.90;;;;;;10447609;28;20477;-24
2023/03/25 13:17:40;;;;;;;30.10;5.35;;;11.90;99.90;;;;;;10449155;28;20044;-28
2023/03/25 13:22:47;;;;;;;33.05;4.80;;;12.70;99.90;;;;;;10455877;28;20037;-31
2023/03/25 13:27:51;;;;;;;35.83;5.95;;;11.60;99.90;;;;;;10449662;28;20049;-26
2023/03/25 13:32:56;;;;;;;38.95;4.57;;;11.60;99.90;;;;;;10453270;28;20149;-26
2023/03/25 13:38:03;;;;;;;36.00;4.80;;;11.80;99.90;;;;;;10456024;28;20471;-26
2023/03/25 13:43:12;;;;;;;31.38;5.07;;;12.70;99.90;;;;;;10445258;28;20052;-29
2023/03/25 13:48:18;;;;;;;37.15;4.75;;;11.90;99.90;;;;;;10444060;28;20059;-26
2023/03/25 13:53:28;;;;;;;21.55;3.22;;;13.10;99.90;;;;;;10447345;28;20052;-26
2023/03/25 13:58:42;;;;;;;39.78;4.22;;;13.00;99.90;;;;;;10455318;28;20048;-28
2023/03/25 14:04:38;;;;;;;29.60;3.35;;;13.50;99.90;;;;;;10448141;28;21740;-31
2023/03/25 14:10:02;;;;;;;21.90;3.63;;;13.80;99.90;;;;;;10415591;28;20098;-24
2023/03/25 14:15:10;;;;;;;37.00;4.80;;;14.60;99.90;;;;;;10442168;28;20541;-24
2023/03/25 14:20:23;;;;;;;46.85;7.05;;;13.90;99.90;;;;;;10453121;28;20140;-24
2023/03/25 14:25:36;;;;;;;37.00;5.72;;;13.90;99.90;;;;;;10449270;28;20052;-25
2023/03/25 14:30:38;;;;;;;22.50;4.47;;;13.60;99.90;;;;;;10455773;28;20089;-24
2023/03/25 14:35:58;;;;;;;;;;;13.40;99.90;;;;;;10449837;28;20417;-25
2023/03/25 14:41:01;;;;;;;40.65;4.88;;;13.20;99.90;;;;;;10458176;28;19927;-24
2023/03/25 14:46:05;;;;;;;56.33;8.60;;;13.60;99.90;;;;;;10450016;28;20130;-25
2023/03/25 14:51:49;;;;;;;43.80;7.03;;;12.70;99.90;;;;;;10449772;28;20131;-23
2023/03/25 14:56:55;;;;;;;;;;;11.40;99.90;;;;;;10450292;28;20545;-24
2023/03/25 15:02:04;;;;;;;41.63;5.10;;;11.40;99.90;;;;;;10448288;28;19958;-25
2023/03/25 15:07:12;;;;;;;37.65;5.18;;;11.40;99.90;;;;;;10454495;28;20064;-25
2023/03/25 15:12:19;;;;;;;41.45;6.20;;;12.00;99.90;;;;;;10450047;28;20536;-24
2023/03/25 15:17:44;;;;;;;35.55;3.90;;;11.40;99.90;;;;;;10446194;28;20563;-24
2023/03/25 15:23:39;;;;;;;53.47;5.95;;;12.30;99.90;;;;;;10449546;28;20045;-24
2023/03/25 15:29:07;;;;;;;53.10;5.82;;;12.00;99.90;;;;;;10446955;28;20053;-23
2023/03/25 15:34:40;;;;;;;48.40;7.53;;;12.00;99.90;;;;;;10445241;28;20056;-23
2023/03/25 15:39:54;;;;;;;42.10;7.60;;;12.20;99.90;;;;;;10449849;28;20056;-21
2023/03/25 15:45:14;;;;;;;28.92;5.53;;;12.30;99.90;;;;;;10430079;28;20053;-23
2023/03/25 15:50:40;;;;;;;33.33;4.95;;;12.30;99.90;;;;;;10439483;28;20095;-24
2023/03/25 15:55:47;;;;;;;34.33;4.90;;;11.60;99.90;;;;;;10451084;28;20104;-23
2023/03/25 16:00:55;;;;;;;43.08;6.00;;;12.10;99.90;;;;;;10445064;28;20099;-23
2023/03/25 16:06:02;;;;;;;40.33;6.88;;;11.80;99.90;;;;;;10452962;28;20159;-23
2023/03/25 16:11:15;;;;;;;28.25;4.70;;;11.70;99.90;;;;;;10444632;28;20052;-23
2023/03/25 16:16:18;;;;;;;;;;;12.30;99.90;;;;;;10458720;28;20520;-25
2023/03/25 16:21:20;;;;;;;39.40;5.00;;;12.90;99.90;;;;;;10445076;28;19924;-23
2023/03/25 16:26:34;;;;;;;63.53;6.05;;;12.40;99.90;;;;;;10450039;28;20080;-23
2023/03/25 16:31:41;;;;;;;33.90;5.13;;;12.00;99.90;;;;;;10450622;28;20914;-24
2023/03/25 16:36:44;;;;;;;55.17;6.43;;;11.70;99.90;;;;;;10456833;28;20084;-23
2023/03/25 16:41:47;;;;;;;35.25;6.53;;;11.30;99.90;;;;;;10445529;28;20045;-24
2023/03/25 16:46:52;;;;;;;23.02;4.25;;;11.30;99.90;;;;;;10447073;28;20069;-23
2023/03/25 16:51:56;;;;;;;35.95;5.10;;;11.80;99.90;;;;;;10445541;28;20466;-24
2023/03/25 16:56:59;;;;;;;28.52;5.10;;;11.20;99.90;;;;;;10456018;28;20080;-24
2023/03/25 17:02:03;;;;;;;;;;;11.20;99.90;;;;;;10459214;28;20052;-25
2023/03/25 17:07:09;;;;;;;54.33;7.10;;;10.80;99.90;;;;;;10449429;28;21546;-24
2023/03/25 17:12:17;;;;;;;40.08;5.45;;;11.30;99.90;;;;;;10445910;28;20063;-24
2023/03/25 17:17:33;;;;;;;47.20;7.20;;;10.60;99.90;;;;;;10449157;28;20454;-23
2023/03/25 17:22:38;;;;;;;36.22;4.32;;;10.60;99.90;;;;;;10449967;28;20152;-24
2023/03/25 17:27:40;;;;;;;43.35;5.20;;;10.80;99.90;;;;;;10460685;28;20449;-24
2023/03/25 17:32:44;;;;;;;53.77;6.17;;;10.80;99.90;;;;;;10455961;28;20131;-24
2023/03/25 17:37:49;;;;;;;39.85;7.32;;;10.90;99.90;;;;;;10438490;28;20057;-28
2023/03/25 17:42:51;;;;;;;35.78;5.68;;;11.20;99.90;;;;;;10451484;28;20053;-21
2023/03/25 17:47:55;;;;;;;41.20;4.60;;;11.40;99.90;;;;;;10458745;28;20477;-21
2023/03/25 17:52:57;;;;;;;50.80;6.13;;;11.70;99.90;;;;;;10444582;28;20049;-23
2023/03/25 17:57:59;;;;;;;28.48;3.90;;;11.90;99.90;;;;;;10439786;28;20040;-23
2023/03/25 18:03:10;;;;;;;30.55;5.07;;;12.10;99.90;;;;;;10442043;28;20456;-24
2023/03/25 18:08:13;;;;;;;46.35;6.28;;;11.90;99.90;;;;;;10452035;28;20106;-24
2023/03/25 18:13:15;;;;;;;45.83;6.75;;;11.40;99.90;;;;;;10450096;28;20057;-21
2023/03/25 18:18:23;;;;;;;40.10;5.50;;;11.50;99.90;;;;;;10451944;28;20267;-24
2023/03/25 18:23:24;;;;;;;41.30;5.53;;;11.30;99.90;;;;;;10458178;28;20473;-24
2023/03/25 18:28:26;;;;;;;39.28;6.10;;;10.90;99.90;;;;;;10460249;28;20065;-26
2023/03/25 18:33:33;;;;;;;46.00;5.15;;;10.50;99.90;;;;;;10461462;28;20052;-25
2023/03/25 18:38:35;;;;;;;28.13;3.40;;;10.90;99.90;;;;;;10432690;28;20631;-23
2023/03/25 18:43:37;;;;;;;17.30;2.95;;;10.20;99.90;;;;;;10442796;28;20056;-26
2023/03/25 18:48:40;;;;;;;15.68;2.28;;;10.00;99.90;;;;;;10445092;28;20142;-24
2023/03/25 18:53:42;;;;;;;21.83;2.90;;;10.60;99.90;;;;;;10443240;28;20159;-23
2023/03/25 18:58:44;;;;;;;20.75;2.72;;;10.30;99.90;;;;;;10446165;28;20051;-24
2023/03/25 19:03:49;;;;;;;22.73;5.13;;;10.90;99.90;;;;;;10443733;28;20052;-25
2023/03/25 19:08:51;;;;;;;7.32;1.92;;;10.60;99.90;;;;;;10449086;28;20049;-25
2023/03/25 19:13:53;;;;;;;20.17;2.72;;;11.00;99.90;;;;;;10444360;28;20157;-23
2023/03/25 19:18:56;;;;;;;31.00;2.83;;;12.30;99.90;;;;;;10454331;28;20049;-23
2023/03/25 19:23:57;;;;;;;21.05;2.35;;;11.70;99.90;;;;;;10454248;28;20128;-24
2023/03/25 19:28:59;;;;;;;14.65;2.30;;;11.40;99.90;;;;;;10457246;28;20127;-23
2023/03/25 19:34:03;;;;;;;19.10;2.55;;;12.10;99.90;;;;;;10446814;28;20049;-24
2023/03/25 19:39:05;;;;;;;11.82;2.45;;;11.20;99.90;;;;;;10451482;28;20628;-21
2023/03/25 19:44:07;;;;;;;26.23;3.25;;;12.50;99.90;;;;;;10447151;28;20080;-23
2023/03/25 19:49:10;;;;;;;21.83;3.00;;;11.70;99.90;;;;;;10440107;28;20055;-21
2023/03/25 19:54:14;;;;;;;13.48;2.20;;;12.10;99.90;;;;;;10439575;28;20049;-23
2023/03/25 19:59:17;;;;;;;10.98;2.75;;;12.60;99.90;;;;;;10454218;28;20444;-23
2023/03/25 20:04:20;;;;;;;;;;;13.00;99.90;;;;;;10445223;28;20149;-26
2023/03/25 20:09:22;;;;;;;10.52;1.80;;;15.00;99.90;;;;;;10445704;28;19979;-23
2023/03/25 20:14:24;;;;;;;10.60;5.07;;;14.20;99.90;;;;;;10439992;28;20061;-25
2023/03/25 20:19:27;;;;;;;13.47;3.77;;;12.20;99.90;;;;;;10449716;28;20047;-25
2023/03/25 20:24:29;;;;;;;15.43;1.98;;;11.30;99.90;;;;;;10446886;28;20529;-23
2023/03/25 20:29:31;;;;;;;14.17;2.57;;;12.10;99.90;;;;;;10455254;28;20048;-26
2023/03/25 20:34:36;;;;;;;6.97;1.90;;;10.80;99.90;;;;;;10458561;28;20076;-24
2023/03/25 20:39:39;;;;;;;8.45;1.70;;;14.00;99.90;;;;;;10448104;28;20200;-26
2023/03/25 20:44:42;;;;;;;5.00;1.33;;;14.20;99.90;;;;;;10465387;28;20067;-22
2023/03/25 20:49:45;;;;;;;11.07;2.25;;;14.60;99.90;;;;;;10450051;28;20750;-22
2023/03/25 20:54:48;;;;;;;13.48;2.75;;;14.30;99.90;;;;;;10448941;28;20052;-23
2023/03/25 20:59:51;;;;;;;10.55;2.35;;;13.60;99.90;;;;;;10450146;28;20468;-24
2023/03/25 21:04:56;;;;;;;11.40;1.70;;;16.00;99.90;;;;;;10445823;28;20110;-22
2023/03/25 21:09:59;;;;;;;8.38;1.48;;;15.80;99.90;;;;;;10452654;28;20049;-23
2023/03/25 21:15:03;;;;;;;8.77;1.77;;;15.90;99.90;;;;;;10458092;28;20465;-22
2023/03/25 21:20:08;;;;;;;9.95;2.00;;;15.00;99.90;;;;;;10453861;28;20049;-24
2023/03/25 21:25:10;;;;;;;9.98;1.80;;;13.80;99.30;;;;;;10450862;28;20406;-24
2023/03/25 21:30:13;;;;;;;9.52;1.95;;;14.30;99.90;;;;;;10450435;28;20234;-23
2023/03/25 21:35:16;;;;;;;7.65;1.73;;;15.40;99.90;;;;;;10449668;28;20048;-23
2023/03/25 21:40:19;;;;;;;11.68;1.75;;;13.60;99.90;;;;;;10446928;28;20577;-23
2023/03/25 21:45:20;;;;;;;9.63;2.23;;;14.80;99.90;;;;;;10445204;28;20489;-24
2023/03/25 21:50:25;;;;;;;10.40;1.80;;;13.40;99.90;;;;;;10449771;28;20566;-23
2023/03/25 21:55:27;;;;;;;9.48;1.35;;;13.70;99.90;;;;;;10456746;28;20106;-23
2023/03/25 22:00:28;;;;;;;14.73;2.47;;;14.80;99.90;;;;;;10451506;28;20036;-23
2023/03/25 22:05:32;;;;;;;12.85;2.40;;;13.30;99.90;;;;;;10457184;28;20493;-24
2023/03/25 22:10:34;;;;;;;7.28;2.08;;;12.60;99.90;;;;;;10445757;28;20099;-24
2023/03/25 22:15:36;;;;;;;9.53;2.07;;;11.90;99.90;;;;;;10446158;28;20052;-24
2023/03/25 22:20:39;;;;;;;7.97;1.85;;;11.70;99.90;;;;;;10462333;28;20098;-24
2023/03/25 22:25:41;;;;;;;14.02;2.40;;;12.90;99.90;;;;;;10449513;28;20102;-23
2023/03/25 22:30:43;;;;;;;5.03;1.38;;;14.60;99.30;;;;;;10449291;28;20106;-24
2023/03/25 22:35:46;;;;;;;6.57;1.30;;;13.90;99.90;;;;;;10457972;28;20044;-24
2023/03/25 22:40:48;;;;;;;4.88;1.13;;;15.60;99.90;;;;;;10450679;28;20794;-23
2023/03/25 22:45:50;;;;;;;6.80;1.37;;;16.00;99.90;;;;;;10429508;28;20110;-24
2023/03/25 22:50:53;;;;;;;13.23;1.53;;;16.30;99.90;;;;;;10450319;28;20444;-22
2023/03/25 22:55:56;;;;;;;5.55;1.23;;;15.30;96.90;;;;;;10452250;28;20076;-24
2023/03/25 23:01:00;;;;;;;6.95;1.48;;;14.30;99.90;;;;;;10455478;28;20084;-24
2023/03/25 23:06:06;;;;;;;5.63;1.48;;;14.40;99.90;;;;;;10449570;28;20133;-23
2023/03/25 23:11:10;;;;;;;8.73;1.13;;;15.60;99.90;;;;;;10456929;28;20045;-23
2023/03/25 23:16:14;;;;;;;3.15;1.00;;;15.80;99.90;;;;;;10454442;28;20056;-23
2023/03/25 23:21:19;;;;;;;6.07;1.88;;;17.10;94.70;;;;;;10456541;28;20128;-25
2023/03/25 23:26:23;;;;;;;5.78;0.80;;;15.90;99.80;;;;;;10461235;28;20060;-23
2023/03/25 23:31:27;;;;;;;3.88;1.23;;;16.70;98.00;;;;;;10455264;28;20049;-23
2023/03/25 23:36:32;;;;;;;3.60;0.98;;;16.80;96.80;;;;;;10453107;28;20412;-24
2023/03/25 23:41:35;;;;;;;15.25;2.95;;;17.20;95.60;;;;;;10462042;28;20051;-22
2023/03/25 23:46:36;;;;;;;8.75;1.40;;;15.40;97.20;;;;;;10443350;28;20053;-24
2023/03/25 23:51:41;;;;;;;3.23;1.37;;;15.80;99.90;;;;;;10454173;28;20049;-24
2023/03/25 23:56:43;;;;;;;2.60;0.93;;;17.10;96.00;;;;;;10441059;28;20115;-22
